sensor_id;sensor_type;location;lat;lon;timestamp;P1;durP1;ratioP1;P2;durP2;ratioP2
8415;SDS011;4245;42.120;24.732;2023-04-16T00:02:05;5.07;;;2.53;;
8415;SDS011;4245;42.120;24.732;2023-04-16T00:04:32;6.50;;;2.87;;
8415;SDS011;4245;42.120;24.732;2023-04-16T00:06:59;8.00;;;2.90;;
8415;SDS011;4245;42.120;24.732;2023-04-16T00:09:27;6.60;;;2.77;;
8415;SDS011;4245;42.120;24.732;2023-04-16T00:11:54;6.53;;;2.97;;
8415;SDS011;4245;42.120;24.732;2023-04-16T00:14:22;5.90;;;2.83;;
8415;SDS011;4245;42.120;24.732;2023-04-16T00:16:48;4.83;;;2.60;;
8415;SDS011;4245;42.120;24.732;2023-04-16T00:19:16;4.97;;;2.63;;
8415;SDS011;4245;42.120;24.732;2023-04-16T00:21:42;7.10;;;2.90;;
8415;SDS011;4245;42.120;24.732;2023-04-16T00:24:10;7.17;;;2.70;;
8415;SDS011;4245;42.120;24.732;2023-04-16T00:26:38;6.00;;;3.00;;
8415;SDS011;4245;42.120;24.732;2023-04-16T00:29:05;6.77;;;3.00;;
8415;SDS011;4245;42.120;24.732;2023-04-16T00:31:32;9.87;;;3.63;;
8415;SDS011;4245;42.120;24.732;2023-04-16T00:33:59;8.03;;;2.90;;
8415;SDS011;4245;42.120;24.732;2023-04-16T00:36:26;5.07;;;2.93;;
8415;SDS011;4245;42.120;24.732;2023-04-16T00:38:54;7.47;;;3.47;;
8415;SDS011;4245;42.120;24.732;2023-04-16T00:41:21;7.87;;;2.83;;
8415;SDS011;4245;42.120;24.732;2023-04-16T00:43:49;8.30;;;2.97;;
8415;SDS011;4245;42.120;24.732;2023-04-16T00:46:17;7.10;;;2.80;;
8415;SDS011;4245;42.120;24.732;2023-04-16T00:48:45;3.70;;;2.50;;
8415;SDS011;4245;42.120;24.732;2023-04-16T00:51:12;6.30;;;2.70;;
8415;SDS011;4245;42.120;24.732;2023-04-16T00:53:40;4.70;;;2.80;;
8415;SDS011;4245;42.120;24.732;2023-04-16T00:56:07;6.63;;;3.10;;
8415;SDS011;4245;42.120;24.732;2023-04-16T00:58:35;4.23;;;2.70;;
8415;SDS011;4245;42.120;24.732;2023-04-16T01:01:04;5.93;;;3.30;;
8415;SDS011;4245;42.120;24.732;2023-04-16T01:03:33;5.23;;;3.00;;
8415;SDS011;4245;42.120;24.732;2023-04-16T01:06:05;7.93;;;3.00;;
8415;SDS011;4245;42.120;24.732;2023-04-16T01:08:32;4.77;;;3.00;;
8415;SDS011;4245;42.120;24.732;2023-04-16T01:10:59;7.03;;;3.43;;
8415;SDS011;4245;42.120;24.732;2023-04-16T01:13:27;5.47;;;3.23;;
8415;SDS011;4245;42.120;24.732;2023-04-16T01:15:54;5.13;;;3.50;;
8415;SDS011;4245;42.120;24.732;2023-04-16T01:18:23;7.77;;;3.70;;
8415;SDS011;4245;42.120;24.732;2023-04-16T01:20:52;8.10;;;3.63;;
8415;SDS011;4245;42.120;24.732;2023-04-16T01:23:19;8.37;;;3.63;;
8415;SDS011;4245;42.120;24.732;2023-04-16T01:25:46;5.93;;;3.30;;
8415;SDS011;4245;42.120;24.732;2023-04-16T01:28:13;6.77;;;3.50;;
8415;SDS011;4245;42.120;24.732;2023-04-16T01:30:40;8.87;;;3.17;;
8415;SDS011;4245;42.120;24.732;2023-04-16T01:33:08;5.27;;;3.10;;
8415;SDS011;4245;42.120;24.732;2023-04-16T01:35:36;5.77;;;3.70;;
8415;SDS011;4245;42.120;24.732;2023-04-16T01:38:06;8.27;;;3.57;;
8415;SDS011;4245;42.120;24.732;2023-04-16T01:40:34;6.90;;;3.67;;
8415;SDS011;4245;42.120;24.732;2023-04-16T01:43:01;5.37;;;3.57;;
8415;SDS011;4245;42.120;24.732;2023-04-16T01:45:29;7.20;;;3.60;;
8415;SDS011;4245;42.120;24.732;2023-04-16T01:47:57;9.63;;;3.77;;
8415;SDS011;4245;42.120;24.732;2023-04-16T01:50:24;6.20;;;3.47;;
8415;SDS011;4245;42.120;24.732;2023-04-16T01:52:51;5.50;;;3.40;;
8415;SDS011;4245;42.120;24.732;2023-04-16T01:55:19;7.80;;;3.20;;
8415;SDS011;4245;42.120;24.732;2023-04-16T01:57:46;7.30;;;3.50;;
8415;SDS011;4245;42.120;24.732;2023-04-16T02:00:13;9.93;;;3.30;;
8415;SDS011;4245;42.120;24.732;2023-04-16T02:02:40;8.87;;;3.20;;
8415;SDS011;4245;42.120;24.732;2023-04-16T02:05:07;6.03;;;3.20;;
8415;SDS011;4245;42.120;24.732;2023-04-16T02:07:34;7.10;;;3.20;;
8415;SDS011;4245;42.120;24.732;2023-04-16T02:10:01;7.70;;;3.40;;
8415;SDS011;4245;42.120;24.732;2023-04-16T02:12:30;9.10;;;3.80;;
8415;SDS011;4245;42.120;24.732;2023-04-16T02:14:58;5.20;;;3.37;;
8415;SDS011;4245;42.120;24.732;2023-04-16T02:17:25;8.80;;;3.70;;
8415;SDS011;4245;42.120;24.732;2023-04-16T02:19:52;8.63;;;3.77;;
8415;SDS011;4245;42.120;24.732;2023-04-16T02:22:19;5.97;;;3.90;;
8415;SDS011;4245;42.120;24.732;2023-04-16T02:24:46;7.10;;;3.97;;
8415;SDS011;4245;42.120;24.732;2023-04-16T02:27:14;8.57;;;3.90;;
8415;SDS011;4245;42.120;24.732;2023-04-16T02:29:43;5.90;;;3.87;;
8415;SDS011;4245;42.120;24.732;2023-04-16T02:32:10;7.33;;;3.87;;
8415;SDS011;4245;42.120;24.732;2023-04-16T02:34:37;6.53;;;3.70;;
8415;SDS011;4245;42.120;24.732;2023-04-16T02:37:04;7.60;;;4.20;;
8415;SDS011;4245;42.120;24.732;2023-04-16T02:39:31;8.73;;;4.20;;
8415;SDS011;4245;42.120;24.732;2023-04-16T02:41:58;6.87;;;3.70;;
8415;SDS011;4245;42.120;24.732;2023-04-16T02:44:26;8.17;;;4.07;;
8415;SDS011;4245;42.120;24.732;2023-04-16T02:46:55;9.30;;;4.10;;
8415;SDS011;4245;42.120;24.732;2023-04-16T02:49:22;7.07;;;3.67;;
8415;SDS011;4245;42.120;24.732;2023-04-16T02:51:49;7.43;;;3.90;;
8415;SDS011;4245;42.120;24.732;2023-04-16T02:54:16;6.80;;;3.70;;
8415;SDS011;4245;42.120;24.732;2023-04-16T02:56:43;7.00;;;3.90;;
8415;SDS011;4245;42.120;24.732;2023-04-16T02:59:10;6.30;;;4.00;;
8415;SDS011;4245;42.120;24.732;2023-04-16T03:01:37;7.33;;;4.40;;
8415;SDS011;4245;42.120;24.732;2023-04-16T03:04:05;7.63;;;4.17;;
8415;SDS011;4245;42.120;24.732;2023-04-16T03:06:32;9.03;;;5.00;;
8415;SDS011;4245;42.120;24.732;2023-04-16T03:08:59;10.77;;;5.53;;
8415;SDS011;4245;42.120;24.732;2023-04-16T03:11:26;7.93;;;4.90;;
8415;SDS011;4245;42.120;24.732;2023-04-16T03:13:53;9.43;;;4.80;;
8415;SDS011;4245;42.120;24.732;2023-04-16T03:16:20;11.67;;;5.30;;
8415;SDS011;4245;42.120;24.732;2023-04-16T03:18:47;9.60;;;5.40;;
8415;SDS011;4245;42.120;24.732;2023-04-16T03:21:16;15.40;;;6.00;;
8415;SDS011;4245;42.120;24.732;2023-04-16T03:23:43;8.87;;;5.70;;
8415;SDS011;4245;42.120;24.732;2023-04-16T03:26:10;8.50;;;5.57;;
8415;SDS011;4245;42.120;24.732;2023-04-16T03:28:37;11.93;;;5.60;;
8415;SDS011;4245;42.120;24.732;2023-04-16T03:31:04;8.90;;;6.10;;
8415;SDS011;4245;42.120;24.732;2023-04-16T03:33:31;8.57;;;6.27;;
8415;SDS011;4245;42.120;24.732;2023-04-16T03:35:57;11.77;;;5.90;;
8415;SDS011;4245;42.120;24.732;2023-04-16T03:38:26;12.73;;;5.80;;
8415;SDS011;4245;42.120;24.732;2023-04-16T03:40:53;12.80;;;5.53;;
8415;SDS011;4245;42.120;24.732;2023-04-16T03:43:20;9.97;;;6.07;;
8415;SDS011;4245;42.120;24.732;2023-04-16T03:45:47;11.70;;;6.10;;
8415;SDS011;4245;42.120;24.732;2023-04-16T03:48:14;11.23;;;5.97;;
8415;SDS011;4245;42.120;24.732;2023-04-16T03:50:43;14.07;;;7.43;;
8415;SDS011;4245;42.120;24.732;2023-04-16T03:53:12;9.57;;;6.23;;
8415;SDS011;4245;42.120;24.732;2023-04-16T03:55:40;13.47;;;6.50;;
8415;SDS011;4245;42.120;24.732;2023-04-16T03:58:08;13.80;;;7.53;;
8415;SDS011;4245;42.120;24.732;2023-04-16T04:00:35;16.87;;;6.80;;
8415;SDS011;4245;42.120;24.732;2023-04-16T04:03:02;11.17;;;7.27;;
8415;SDS011;4245;42.120;24.732;2023-04-16T04:05:29;12.23;;;7.13;;
8415;SDS011;4245;42.120;24.732;2023-04-16T04:07:56;12.50;;;6.70;;
8415;SDS011;4245;42.120;24.732;2023-04-16T04:10:23;12.70;;;6.73;;
8415;SDS011;4245;42.120;24.732;2023-04-16T04:12:51;14.10;;;7.23;;
8415;SDS011;4245;42.120;24.732;2023-04-16T04:15:18;9.17;;;6.27;;
8415;SDS011;4245;42.120;24.732;2023-04-16T04:17:45;15.50;;;6.27;;
8415;SDS011;4245;42.120;24.732;2023-04-16T04:20:12;9.07;;;6.30;;
8415;SDS011;4245;42.120;24.732;2023-04-16T04:22:39;16.60;;;8.30;;
8415;SDS011;4245;42.120;24.732;2023-04-16T04:25:07;12.03;;;6.40;;
8415;SDS011;4245;42.120;24.732;2023-04-16T04:27:35;14.07;;;6.73;;
8415;SDS011;4245;42.120;24.732;2023-04-16T04:30:04;11.77;;;6.70;;
8415;SDS011;4245;42.120;24.732;2023-04-16T04:32:32;9.77;;;5.80;;
8415;SDS011;4245;42.120;24.732;2023-04-16T04:34:59;13.70;;;7.23;;
8415;SDS011;4245;42.120;24.732;2023-04-16T04:37:28;12.87;;;7.77;;
8415;SDS011;4245;42.120;24.732;2023-04-16T04:39:55;11.43;;;7.30;;
8415;SDS011;4245;42.120;24.732;2023-04-16T04:42:22;11.63;;;7.60;;
8415;SDS011;4245;42.120;24.732;2023-04-16T04:44:49;13.83;;;7.60;;
8415;SDS011;4245;42.120;24.732;2023-04-16T04:47:17;15.93;;;8.20;;
8415;SDS011;4245;42.120;24.732;2023-04-16T04:49:44;13.87;;;7.80;;
8415;SDS011;4245;42.120;24.732;2023-04-16T04:52:11;12.67;;;7.90;;
8415;SDS011;4245;42.120;24.732;2023-04-16T04:54:40;13.83;;;8.07;;
8415;SDS011;4245;42.120;24.732;2023-04-16T04:57:07;12.83;;;8.47;;
8415;SDS011;4245;42.120;24.732;2023-04-16T04:59:34;13.23;;;9.20;;
8415;SDS011;4245;42.120;24.732;2023-04-16T05:02:01;12.97;;;8.10;;
8415;SDS011;4245;42.120;24.732;2023-04-16T05:04:30;17.03;;;7.90;;
8415;SDS011;4245;42.120;24.732;2023-04-16T05:06:57;13.50;;;7.10;;
8415;SDS011;4245;42.120;24.732;2023-04-16T05:09:24;13.40;;;8.00;;
8415;SDS011;4245;42.120;24.732;2023-04-16T05:11:51;14.20;;;7.40;;
8415;SDS011;4245;42.120;24.732;2023-04-16T05:14:18;15.40;;;7.50;;
8415;SDS011;4245;42.120;24.732;2023-04-16T05:16:45;15.67;;;7.83;;
8415;SDS011;4245;42.120;24.732;2023-04-16T05:19:12;14.10;;;7.53;;
8415;SDS011;4245;42.120;24.732;2023-04-16T05:21:40;12.70;;;7.60;;
8415;SDS011;4245;42.120;24.732;2023-04-16T05:24:07;11.73;;;6.70;;
8415;SDS011;4245;42.120;24.732;2023-04-16T05:26:34;12.13;;;6.40;;
8415;SDS011;4245;42.120;24.732;2023-04-16T05:29:01;12.33;;;6.77;;
8415;SDS011;4245;42.120;24.732;2023-04-16T05:31:28;10.40;;;6.73;;
8415;SDS011;4245;42.120;24.732;2023-04-16T05:33:55;11.40;;;5.93;;
8415;SDS011;4245;42.120;24.732;2023-04-16T05:36:22;11.27;;;7.30;;
8415;SDS011;4245;42.120;24.732;2023-04-16T05:38:51;14.33;;;7.63;;
8415;SDS011;4245;42.120;24.732;2023-04-16T05:41:18;10.47;;;6.10;;
8415;SDS011;4245;42.120;24.732;2023-04-16T05:43:45;9.90;;;5.47;;
8415;SDS011;4245;42.120;24.732;2023-04-16T05:46:12;13.83;;;6.47;;
8415;SDS011;4245;42.120;24.732;2023-04-16T05:48:39;13.20;;;6.30;;
8415;SDS011;4245;42.120;24.732;2023-04-16T05:51:06;9.33;;;6.67;;
8415;SDS011;4245;42.120;24.732;2023-04-16T05:53:33;13.60;;;6.20;;
8415;SDS011;4245;42.120;24.732;2023-04-16T05:56:01;11.33;;;5.57;;
8415;SDS011;4245;42.120;24.732;2023-04-16T05:58:28;10.10;;;6.03;;
8415;SDS011;4245;42.120;24.732;2023-04-16T06:00:55;8.77;;;5.47;;
8415;SDS011;4245;42.120;24.732;2023-04-16T06:03:22;7.00;;;4.93;;
8415;SDS011;4245;42.120;24.732;2023-04-16T06:05:49;9.37;;;5.03;;
8415;SDS011;4245;42.120;24.732;2023-04-16T06:08:16;10.60;;;5.73;;
8415;SDS011;4245;42.120;24.732;2023-04-16T06:10:44;7.13;;;5.20;;
8415;SDS011;4245;42.120;24.732;2023-04-16T06:13:13;8.50;;;5.00;;
8415;SDS011;4245;42.120;24.732;2023-04-16T06:15:40;6.93;;;4.40;;
8415;SDS011;4245;42.120;24.732;2023-04-16T06:18:07;6.60;;;4.17;;
8415;SDS011;4245;42.120;24.732;2023-04-16T06:20:34;8.03;;;4.70;;
8415;SDS011;4245;42.120;24.732;2023-04-16T06:23:01;7.43;;;3.90;;
8415;SDS011;4245;42.120;24.732;2023-04-16T06:25:28;7.77;;;4.17;;
8415;SDS011;4245;42.120;24.732;2023-04-16T06:27:55;5.83;;;4.00;;
8415;SDS011;4245;42.120;24.732;2023-04-16T06:30:23;8.97;;;5.50;;
8415;SDS011;4245;42.120;24.732;2023-04-16T06:32:50;7.83;;;4.07;;
8415;SDS011;4245;42.120;24.732;2023-04-16T06:35:18;7.70;;;3.57;;
8415;SDS011;4245;42.120;24.732;2023-04-16T06:37:46;5.37;;;3.63;;
8415;SDS011;4245;42.120;24.732;2023-04-16T06:40:13;8.53;;;3.90;;
8415;SDS011;4245;42.120;24.732;2023-04-16T06:42:41;7.83;;;3.77;;
8415;SDS011;4245;42.120;24.732;2023-04-16T06:47:37;8.57;;;4.67;;
8415;SDS011;4245;42.120;24.732;2023-04-16T06:50:05;6.53;;;3.90;;
8415;SDS011;4245;42.120;24.732;2023-04-16T06:52:32;9.40;;;4.77;;
8415;SDS011;4245;42.120;24.732;2023-04-16T06:54:59;9.23;;;4.67;;
8415;SDS011;4245;42.120;24.732;2023-04-16T06:57:26;8.27;;;4.03;;
8415;SDS011;4245;42.120;24.732;2023-04-16T06:59:53;6.63;;;3.40;;
8415;SDS011;4245;42.120;24.732;2023-04-16T07:02:20;7.43;;;4.57;;
8415;SDS011;4245;42.120;24.732;2023-04-16T07:04:48;7.87;;;4.37;;
8415;SDS011;4245;42.120;24.732;2023-04-16T07:07:16;11.10;;;5.47;;
8415;SDS011;4245;42.120;24.732;2023-04-16T07:09:43;7.50;;;3.80;;
8415;SDS011;4245;42.120;24.732;2023-04-16T07:12:10;7.20;;;4.27;;
8415;SDS011;4245;42.120;24.732;2023-04-16T07:14:37;7.97;;;4.07;;
8415;SDS011;4245;42.120;24.732;2023-04-16T07:17:04;9.90;;;4.23;;
8415;SDS011;4245;42.120;24.732;2023-04-16T07:19:31;7.23;;;3.13;;
8415;SDS011;4245;42.120;24.732;2023-04-16T07:21:59;6.33;;;3.20;;
8415;SDS011;4245;42.120;24.732;2023-04-16T07:24:27;7.33;;;3.73;;
8415;SDS011;4245;42.120;24.732;2023-04-16T07:26:54;7.53;;;3.80;;
8415;SDS011;4245;42.120;24.732;2023-04-16T07:29:21;6.70;;;4.57;;
8415;SDS011;4245;42.120;24.732;2023-04-16T07:31:48;6.87;;;3.40;;
8415;SDS011;4245;42.120;24.732;2023-04-16T07:34:15;8.07;;;3.80;;
8415;SDS011;4245;42.120;24.732;2023-04-16T07:36:42;10.17;;;3.80;;
8415;SDS011;4245;42.120;24.732;2023-04-16T07:39:10;7.17;;;3.57;;
8415;SDS011;4245;42.120;24.732;2023-04-16T07:41:37;5.60;;;3.90;;
8415;SDS011;4245;42.120;24.732;2023-04-16T07:44:05;5.68;;;3.42;;
8415;SDS011;4245;42.120;24.732;2023-04-16T07:46:32;11.27;;;3.72;;
8415;SDS011;4245;42.120;24.732;2023-04-16T07:48:59;6.67;;;3.63;;
8415;SDS011;4245;42.120;24.732;2023-04-16T07:51:26;6.87;;;3.23;;
8415;SDS011;4245;42.120;24.732;2023-04-16T07:53:53;8.23;;;4.00;;
8415;SDS011;4245;42.120;24.732;2023-04-16T07:56:21;7.20;;;3.40;;
8415;SDS011;4245;42.120;24.732;2023-04-16T07:58:48;7.73;;;4.60;;
8415;SDS011;4245;42.120;24.732;2023-04-16T08:01:15;7.25;;;3.38;;
8415;SDS011;4245;42.120;24.732;2023-04-16T08:03:42;7.45;;;3.70;;
8415;SDS011;4245;42.120;24.732;2023-04-16T08:06:09;5.85;;;3.60;;
8415;SDS011;4245;42.120;24.732;2023-04-16T08:08:36;9.00;;;4.00;;
8415;SDS011;4245;42.120;24.732;2023-04-16T08:11:03;6.80;;;3.97;;
8415;SDS011;4245;42.120;24.732;2023-04-16T08:13:31;9.32;;;4.13;;
8415;SDS011;4245;42.120;24.732;2023-04-16T08:15:58;8.23;;;4.03;;
8415;SDS011;4245;42.120;24.732;2023-04-16T08:18:25;9.00;;;3.80;;
8415;SDS011;4245;42.120;24.732;2023-04-16T08:20:53;9.13;;;4.03;;
8415;SDS011;4245;42.120;24.732;2023-04-16T08:23:20;8.73;;;4.10;;
8415;SDS011;4245;42.120;24.732;2023-04-16T08:25:47;7.57;;;3.70;;
8415;SDS011;4245;42.120;24.732;2023-04-16T08:28:14;9.07;;;4.13;;
8415;SDS011;4245;42.120;24.732;2023-04-16T08:30:42;5.37;;;3.30;;
8415;SDS011;4245;42.120;24.732;2023-04-16T08:33:10;6.87;;;4.03;;
8415;SDS011;4245;42.120;24.732;2023-04-16T08:35:38;6.43;;;3.63;;
8415;SDS011;4245;42.120;24.732;2023-04-16T08:38:05;7.07;;;3.70;;
8415;SDS011;4245;42.120;24.732;2023-04-16T08:40:33;7.40;;;4.07;;
8415;SDS011;4245;42.120;24.732;2023-04-16T08:43:04;8.20;;;4.10;;
8415;SDS011;4245;42.120;24.732;2023-04-16T08:45:34;10.60;;;4.40;;
8415;SDS011;4245;42.120;24.732;2023-04-16T08:48:03;9.87;;;4.20;;
8415;SDS011;4245;42.120;24.732;2023-04-16T08:50:31;8.13;;;4.37;;
8415;SDS011;4245;42.120;24.732;2023-04-16T08:53:02;7.03;;;3.97;;
8415;SDS011;4245;42.120;24.732;2023-04-16T08:55:33;9.80;;;3.97;;
8415;SDS011;4245;42.120;24.732;2023-04-16T08:58:03;9.80;;;3.87;;
8415;SDS011;4245;42.120;24.732;2023-04-16T09:00:34;7.60;;;4.33;;
8415;SDS011;4245;42.120;24.732;2023-04-16T09:03:04;9.23;;;4.13;;
8415;SDS011;4245;42.120;24.732;2023-04-16T09:05:32;13.23;;;4.57;;
8415;SDS011;4245;42.120;24.732;2023-04-16T09:07:59;7.17;;;4.00;;
8415;SDS011;4245;42.120;24.732;2023-04-16T09:10:26;8.57;;;3.77;;
8415;SDS011;4245;42.120;24.732;2023-04-16T09:12:54;9.37;;;4.07;;
8415;SDS011;4245;42.120;24.732;2023-04-16T09:15:21;6.87;;;3.50;;
8415;SDS011;4245;42.120;24.732;2023-04-16T09:17:49;8.18;;;3.63;;
8415;SDS011;4245;42.120;24.732;2023-04-16T09:20:18;6.50;;;4.32;;
8415;SDS011;4245;42.120;24.732;2023-04-16T09:22:45;6.95;;;3.50;;
8415;SDS011;4245;42.120;24.732;2023-04-16T09:25:13;9.45;;;3.55;;
8415;SDS011;4245;42.120;24.732;2023-04-16T09:27:40;5.10;;;3.40;;
8415;SDS011;4245;42.120;24.732;2023-04-16T09:30:19;6.68;;;2.90;;
8415;SDS011;4245;42.120;24.732;2023-04-16T09:32:50;5.10;;;3.10;;
8415;SDS011;4245;42.120;24.732;2023-04-16T09:35:19;5.80;;;3.33;;
8415;SDS011;4245;42.120;24.732;2023-04-16T09:37:55;5.13;;;3.30;;
8415;SDS011;4245;42.120;24.732;2023-04-16T09:40:23;5.07;;;2.80;;
8415;SDS011;4245;42.120;24.732;2023-04-16T09:42:51;6.00;;;2.83;;
8415;SDS011;4245;42.120;24.732;2023-04-16T09:45:22;10.95;;;5.72;;
8415;SDS011;4245;42.120;24.732;2023-04-16T09:47:48;5.82;;;2.90;;
8415;SDS011;4245;42.120;24.732;2023-04-16T09:50:16;5.43;;;2.95;;
8415;SDS011;4245;42.120;24.732;2023-04-16T09:52:46;5.43;;;2.83;;
8415;SDS011;4245;42.120;24.732;2023-04-16T09:55:15;7.07;;;3.00;;
8415;SDS011;4245;42.120;24.732;2023-04-16T09:57:43;6.82;;;3.30;;
8415;SDS011;4245;42.120;24.732;2023-04-16T10:00:11;7.10;;;3.25;;
8415;SDS011;4245;42.120;24.732;2023-04-16T10:02:39;5.63;;;2.85;;
8415;SDS011;4245;42.120;24.732;2023-04-16T10:05:06;6.47;;;3.25;;
8415;SDS011;4245;42.120;24.732;2023-04-16T10:07:34;6.53;;;2.90;;
8415;SDS011;4245;42.120;24.732;2023-04-16T10:10:04;5.32;;;2.92;;
8415;SDS011;4245;42.120;24.732;2023-04-16T10:12:32;3.92;;;2.75;;
8415;SDS011;4245;42.120;24.732;2023-04-16T10:14:59;5.70;;;2.88;;
8415;SDS011;4245;42.120;24.732;2023-04-16T10:17:27;5.60;;;2.33;;
8415;SDS011;4245;42.120;24.732;2023-04-16T10:19:55;5.72;;;2.60;;
8415;SDS011;4245;42.120;24.732;2023-04-16T10:22:23;5.43;;;2.45;;
8415;SDS011;4245;42.120;24.732;2023-04-16T10:24:51;3.83;;;2.40;;
8415;SDS011;4245;42.120;24.732;2023-04-16T10:27:21;6.38;;;3.63;;
8415;SDS011;4245;42.120;24.732;2023-04-16T10:29:48;5.68;;;2.92;;
8415;SDS011;4245;42.120;24.732;2023-04-16T10:32:16;5.50;;;2.95;;
8415;SDS011;4245;42.120;24.732;2023-04-16T10:34:44;5.80;;;3.10;;
8415;SDS011;4245;42.120;24.732;2023-04-16T10:37:14;6.88;;;3.40;;
8415;SDS011;4245;42.120;24.732;2023-04-16T10:39:42;10.23;;;3.55;;
8415;SDS011;4245;42.120;24.732;2023-04-16T10:42:10;7.20;;;3.50;;
8415;SDS011;4245;42.120;24.732;2023-04-16T10:44:39;7.72;;;4.30;;
8415;SDS011;4245;42.120;24.732;2023-04-16T10:47:09;7.95;;;3.92;;
8415;SDS011;4245;42.120;24.732;2023-04-16T10:49:37;5.65;;;3.40;;
8415;SDS011;4245;42.120;24.732;2023-04-16T10:52:09;6.22;;;3.60;;
8415;SDS011;4245;42.120;24.732;2023-04-16T10:54:37;7.75;;;4.22;;
8415;SDS011;4245;42.120;24.732;2023-04-16T10:57:05;6.45;;;3.55;;
8415;SDS011;4245;42.120;24.732;2023-04-16T10:59:34;8.13;;;3.65;;
8415;SDS011;4245;42.120;24.732;2023-04-16T11:02:06;6.88;;;2.83;;
8415;SDS011;4245;42.120;24.732;2023-04-16T11:04:35;6.57;;;2.83;;
8415;SDS011;4245;42.120;24.732;2023-04-16T11:07:04;8.32;;;3.47;;
8415;SDS011;4245;42.120;24.732;2023-04-16T11:09:43;8.90;;;2.90;;
8415;SDS011;4245;42.120;24.732;2023-04-16T11:12:16;6.93;;;3.38;;
8415;SDS011;4245;42.120;24.732;2023-04-16T11:14:46;6.72;;;3.22;;
8415;SDS011;4245;42.120;24.732;2023-04-16T11:17:15;4.50;;;3.10;;
8415;SDS011;4245;42.120;24.732;2023-04-16T11:19:42;6.80;;;3.08;;
8415;SDS011;4245;42.120;24.732;2023-04-16T11:22:11;6.47;;;3.22;;
8415;SDS011;4245;42.120;24.732;2023-04-16T11:24:39;10.75;;;3.70;;
8415;SDS011;4245;42.120;24.732;2023-04-16T11:27:06;6.35;;;3.30;;
8415;SDS011;4245;42.120;24.732;2023-04-16T11:29:33;7.63;;;3.13;;
8415;SDS011;4245;42.120;24.732;2023-04-16T11:32:00;5.30;;;2.88;;
8415;SDS011;4245;42.120;24.732;2023-04-16T11:34:29;6.60;;;3.00;;
8415;SDS011;4245;42.120;24.732;2023-04-16T11:36:56;6.73;;;3.23;;
8415;SDS011;4245;42.120;24.732;2023-04-16T11:39:23;5.20;;;3.00;;
8415;SDS011;4245;42.120;24.732;2023-04-16T11:41:50;6.17;;;3.30;;
8415;SDS011;4245;42.120;24.732;2023-04-16T11:44:18;6.55;;;2.80;;
8415;SDS011;4245;42.120;24.732;2023-04-16T11:46:46;6.00;;;3.17;;
8415;SDS011;4245;42.120;24.732;2023-04-16T11:49:14;5.50;;;2.93;;
8415;SDS011;4245;42.120;24.732;2023-04-16T11:51:43;7.97;;;3.80;;
8415;SDS011;4245;42.120;24.732;2023-04-16T11:54:17;5.53;;;3.60;;
8415;SDS011;4245;42.120;24.732;2023-04-16T11:56:44;5.50;;;3.60;;
8415;SDS011;4245;42.120;24.732;2023-04-16T11:59:15;6.63;;;3.63;;
8415;SDS011;4245;42.120;24.732;2023-04-16T12:01:45;7.27;;;3.57;;
8415;SDS011;4245;42.120;24.732;2023-04-16T12:04:13;10.57;;;7.17;;
8415;SDS011;4245;42.120;24.732;2023-04-16T12:09:37;8.77;;;4.20;;
8415;SDS011;4245;42.120;24.732;2023-04-16T12:12:05;5.57;;;3.50;;
8415;SDS011;4245;42.120;24.732;2023-04-16T12:14:50;8.37;;;3.23;;
8415;SDS011;4245;42.120;24.732;2023-04-16T12:17:18;9.83;;;3.80;;
8415;SDS011;4245;42.120;24.732;2023-04-16T12:19:49;9.97;;;3.60;;
8415;SDS011;4245;42.120;24.732;2023-04-16T12:22:18;9.70;;;3.07;;
8415;SDS011;4245;42.120;24.732;2023-04-16T12:24:54;6.10;;;3.30;;
8415;SDS011;4245;42.120;24.732;2023-04-16T12:27:22;8.27;;;3.53;;
8415;SDS011;4245;42.120;24.732;2023-04-16T12:30:01;9.40;;;3.63;;
8415;SDS011;4245;42.120;24.732;2023-04-16T12:32:29;7.23;;;3.00;;
8415;SDS011;4245;42.120;24.732;2023-04-16T12:34:56;8.67;;;3.90;;
8415;SDS011;4245;42.120;24.732;2023-04-16T12:37:24;12.67;;;4.10;;
8415;SDS011;4245;42.120;24.732;2023-04-16T12:39:52;10.50;;;3.53;;
8415;SDS011;4245;42.120;24.732;2023-04-16T12:42:19;7.80;;;4.20;;
8415;SDS011;4245;42.120;24.732;2023-04-16T12:44:46;5.87;;;3.83;;
8415;SDS011;4245;42.120;24.732;2023-04-16T12:47:13;9.43;;;3.97;;
8415;SDS011;4245;42.120;24.732;2023-04-16T12:49:40;7.47;;;3.97;;
8415;SDS011;4245;42.120;24.732;2023-04-16T12:52:08;7.43;;;4.40;;
8415;SDS011;4245;42.120;24.732;2023-04-16T12:54:37;8.33;;;4.90;;
8415;SDS011;4245;42.120;24.732;2023-04-16T12:57:04;9.70;;;4.90;;
8415;SDS011;4245;42.120;24.732;2023-04-16T12:59:31;9.33;;;4.63;;
8415;SDS011;4245;42.120;24.732;2023-04-16T13:01:59;12.10;;;5.53;;
8415;SDS011;4245;42.120;24.732;2023-04-16T13:04:27;9.93;;;5.47;;
8415;SDS011;4245;42.120;24.732;2023-04-16T13:06:54;7.47;;;4.50;;
8415;SDS011;4245;42.120;24.732;2023-04-16T13:09:21;7.93;;;4.20;;
8415;SDS011;4245;42.120;24.732;2023-04-16T13:11:50;6.60;;;2.80;;
8415;SDS011;4245;42.120;24.732;2023-04-16T13:14:17;4.83;;;2.80;;
8415;SDS011;4245;42.120;24.732;2023-04-16T13:16:45;6.17;;;3.10;;
8415;SDS011;4245;42.120;24.732;2023-04-16T13:19:12;4.43;;;2.60;;
8415;SDS011;4245;42.120;24.732;2023-04-16T13:21:40;4.37;;;2.83;;
8415;SDS011;4245;42.120;24.732;2023-04-16T13:24:07;5.23;;;2.47;;
8415;SDS011;4245;42.120;24.732;2023-04-16T13:26:33;2.97;;;2.20;;
8415;SDS011;4245;42.120;24.732;2023-04-16T13:29:02;4.37;;;2.47;;
8415;SDS011;4245;42.120;24.732;2023-04-16T13:31:29;5.10;;;2.40;;
8415;SDS011;4245;42.120;24.732;2023-04-16T13:33:56;2.90;;;2.37;;
8415;SDS011;4245;42.120;24.732;2023-04-16T13:36:23;5.70;;;2.70;;
8415;SDS011;4245;42.120;24.732;2023-04-16T13:38:51;6.73;;;3.10;;
8415;SDS011;4245;42.120;24.732;2023-04-16T13:41:18;7.47;;;3.87;;
8415;SDS011;4245;42.120;24.732;2023-04-16T13:43:45;4.20;;;2.80;;
8415;SDS011;4245;42.120;24.732;2023-04-16T13:46:14;3.73;;;2.77;;
8415;SDS011;4245;42.120;24.732;2023-04-16T13:48:41;5.23;;;3.10;;
8415;SDS011;4245;42.120;24.732;2023-04-16T13:51:07;6.57;;;3.60;;
8415;SDS011;4245;42.120;24.732;2023-04-16T13:53:34;6.97;;;4.50;;
8415;SDS011;4245;42.120;24.732;2023-04-16T13:56:01;9.97;;;4.83;;
8415;SDS011;4245;42.120;24.732;2023-04-16T13:58:29;5.50;;;3.90;;
8415;SDS011;4245;42.120;24.732;2023-04-16T14:00:56;5.43;;;3.63;;
8415;SDS011;4245;42.120;24.732;2023-04-16T14:03:25;6.87;;;3.10;;
8415;SDS011;4245;42.120;24.732;2023-04-16T14:05:52;5.83;;;3.07;;
8415;SDS011;4245;42.120;24.732;2023-04-16T14:08:19;5.07;;;2.90;;
8415;SDS011;4245;42.120;24.732;2023-04-16T14:10:46;4.33;;;3.00;;
8415;SDS011;4245;42.120;24.732;2023-04-16T14:13:13;6.13;;;2.57;;
8415;SDS011;4245;42.120;24.732;2023-04-16T14:15:40;4.83;;;2.40;;
8415;SDS011;4245;42.120;24.732;2023-04-16T14:18:07;6.00;;;2.70;;
8415;SDS011;4245;42.120;24.732;2023-04-16T14:20:36;5.53;;;2.80;;
8415;SDS011;4245;42.120;24.732;2023-04-16T14:23:04;5.53;;;2.78;;
8415;SDS011;4245;42.120;24.732;2023-04-16T14:25:31;7.45;;;3.70;;
8415;SDS011;4245;42.120;24.732;2023-04-16T14:27:58;4.47;;;3.50;;
8415;SDS011;4245;42.120;24.732;2023-04-16T14:30:26;9.15;;;3.88;;
8415;SDS011;4245;42.120;24.732;2023-04-16T14:32:53;7.35;;;3.38;;
8415;SDS011;4245;42.120;24.732;2023-04-16T14:35:20;9.93;;;4.10;;
8415;SDS011;4245;42.120;24.732;2023-04-16T14:37:48;6.32;;;3.42;;
8415;SDS011;4245;42.120;24.732;2023-04-16T14:40:15;6.25;;;3.55;;
8415;SDS011;4245;42.120;24.732;2023-04-16T14:42:42;7.38;;;3.78;;
8415;SDS011;4245;42.120;24.732;2023-04-16T14:45:09;9.32;;;4.20;;
8415;SDS011;4245;42.120;24.732;2023-04-16T14:47:36;8.50;;;3.70;;
8415;SDS011;4245;42.120;24.732;2023-04-16T14:50:09;9.43;;;3.80;;
8415;SDS011;4245;42.120;24.732;2023-04-16T14:52:37;7.50;;;3.55;;
8415;SDS011;4245;42.120;24.732;2023-04-16T14:55:06;5.57;;;3.50;;
8415;SDS011;4245;42.120;24.732;2023-04-16T14:57:33;10.90;;;3.87;;
8415;SDS011;4245;42.120;24.732;2023-04-16T15:00:00;11.77;;;4.03;;
8415;SDS011;4245;42.120;24.732;2023-04-16T15:02:32;6.83;;;3.87;;
8415;SDS011;4245;42.120;24.732;2023-04-16T15:04:59;11.07;;;4.10;;
8415;SDS011;4245;42.120;24.732;2023-04-16T15:07:26;8.00;;;3.83;;